Terminal Aerodrome Forecast
Issued by NWS

Current Version | Previous Version | Text Only | Print | Product List | Glossary Off
Versions: 1 2 3 4 5 6 7 8 9 10 11 12 13 14 15 16 17 18 19 20 21 22 23 24 25 26 27 28

000
FTUS41 KPBZ 242335
TAFMGW
TAF
KMGW 242335Z 2500/2524 33008KT 6SM -TSRA BKN050CB
     FM250200 00000KT P6SM BKN200
     FM251700 23006KT P6SM VCTS BKN250CB
     FM252100 25006KT P6SM SHRA VCTS BKN090CB=

USA.gov is the U.S. government's official web portal to all federal, state and local government web resources and services.